Time;durP1;ratioP1;P1;durP2;ratioP2;P2;SDS_P1;SDS_P2;PMS_P1;PMS_P2;Temp;Humidity;BMP_temperature;BMP_pressure;BME280_temperature;BME280_humidity;BME280_pressure;Samples;Min_cycle;Max_cycle;Signal;HPM_P1;HPM_P2
2023/08/12 00:01:03;;;;;;;4.78;2.92;;;21.70;99.90;;;;;;4999141;28;20065;-82
2023/08/12 00:03:29;;;;;;;3.65;3.08;;;21.70;99.90;;;;;;5002811;28;20022;-82
2023/08/12 00:05:56;;;;;;;5.15;3.35;;;21.70;99.90;;;;;;4997970;28;20038;-82
2023/08/12 00:08:22;;;;;;;6.80;3.75;;;21.60;99.90;;;;;;4979150;28;20023;-81
2023/08/12 00:10:47;;;;;;;9.07;4.00;;;21.70;99.90;;;;;;4975159;28;20053;-80
2023/08/12 00:13:17;;;;;;;6.65;4.05;;;21.80;99.90;;;;;;4975075;28;20090;-80
2023/08/12 00:15:43;;;;;;;4.30;3.15;;;21.90;99.90;;;;;;4974401;28;20034;-78
2023/08/12 00:18:09;;;;;;;6.07;3.20;;;22.00;99.90;;;;;;4973272;28;20054;-79
2023/08/12 00:20:34;;;;;;;7.93;4.03;;;22.00;99.90;;;;;;4974637;28;20057;-77
2023/08/12 00:23:00;;;;;;;3.88;3.30;;;22.00;99.90;;;;;;4975174;28;20416;-80
2023/08/12 00:25:25;;;;;;;4.05;2.88;;;22.10;99.90;;;;;;4974065;28;20491;-79
2023/08/12 00:27:52;;;;;;;5.20;3.80;;;22.00;99.90;;;;;;4973777;28;20027;-79
2023/08/12 00:30:18;;;;;;;5.78;3.38;;;22.10;99.90;;;;;;4974084;28;20089;-79
2023/08/12 00:32:43;;;;;;;6.65;3.30;;;22.10;99.90;;;;;;4973474;28;20038;-79
2023/08/12 00:35:09;;;;;;;4.70;3.20;;;22.10;99.90;;;;;;4978409;28;20033;-79
2023/08/12 00:37:34;;;;;;;5.47;3.80;;;22.10;99.90;;;;;;4992642;28;20027;-79
2023/08/12 00:40:00;;;;;;;7.50;3.13;;;22.00;99.90;;;;;;4979777;28;20035;-79
2023/08/12 00:42:26;;;;;;;4.63;3.47;;;21.90;99.90;;;;;;4973479;28;20170;-79
2023/08/12 00:44:51;;;;;;;5.88;3.20;;;22.00;99.90;;;;;;4973706;28;20182;-78
2023/08/12 00:47:17;;;;;;;4.45;3.10;;;22.00;99.90;;;;;;4974885;28;20361;-79
2023/08/12 00:49:46;;;;;;;5.60;3.35;;;21.90;99.90;;;;;;4973967;28;20067;-79
2023/08/12 00:52:14;;;;;;;5.10;3.25;;;21.90;99.90;;;;;;4974986;28;20105;-79
2023/08/12 00:54:39;;;;;;;5.22;3.50;;;21.90;99.90;;;;;;4973448;28;20030;-79
2023/08/12 00:57:07;;;;;;;4.43;3.58;;;21.90;99.90;;;;;;4973499;28;20038;-78
2023/08/12 00:59:35;;;;;;;3.90;3.42;;;21.90;99.90;;;;;;4973735;28;20030;-78
2023/08/12 01:02:01;;;;;;;4.45;3.45;;;21.90;99.90;;;;;;4974423;28;20027;-78
2023/08/12 01:04:27;;;;;;;5.38;3.38;;;22.00;99.90;;;;;;4974983;28;20046;-78
2023/08/12 01:06:53;;;;;;;4.88;3.30;;;22.00;99.90;;;;;;4974073;28;20045;-78
2023/08/12 01:09:19;;;;;;;8.00;3.53;;;22.00;99.90;;;;;;4974760;28;20031;-78
2023/08/12 01:11:59;;;;;;;5.30;3.40;;;21.90;99.90;;;;;;4974349;28;20019;-78
2023/08/12 01:14:37;;;;;;;5.43;3.50;;;21.90;99.90;;;;;;4973747;28;20031;-79
2023/08/12 01:17:06;;;;;;;3.42;3.13;;;21.90;99.90;;;;;;4974178;28;20134;-77
2023/08/12 01:19:37;;;;;;;5.78;3.30;;;21.80;99.90;;;;;;4973204;28;20034;-78
2023/08/12 01:22:06;;;;;;;4.88;3.22;;;21.80;99.90;;;;;;4972593;28;20467;-78
2023/08/12 01:24:42;;;;;;;4.88;3.30;;;21.80;99.90;;;;;;4972929;28;20035;-78
2023/08/12 01:27:09;;;;;;;5.38;3.53;;;21.80;99.90;;;;;;4974300;28;20037;-78
2023/08/12 01:29:40;;;;;;;7.70;4.10;;;21.80;99.90;;;;;;4977558;28;20110;-79
2023/08/12 01:32:18;;;;;;;5.43;3.40;;;21.80;99.90;;;;;;4977938;28;20027;-80
2023/08/12 01:34:51;;;;;;;4.78;3.35;;;21.90;99.90;;;;;;4976941;28;20035;-79
2023/08/12 01:37:24;;;;;;;4.82;3.30;;;21.80;99.90;;;;;;4977102;28;20106;-79
2023/08/12 01:39:53;;;;;;;4.32;3.40;;;21.90;99.90;;;;;;4976799;28;20034;-79
2023/08/12 01:42:19;;;;;;;5.65;3.85;;;21.90;99.90;;;;;;4976807;28;20035;-80
2023/08/12 01:44:46;;;;;;;4.97;3.67;;;22.00;99.90;;;;;;4975761;28;20154;-78
2023/08/12 01:47:12;;;;;;;4.28;3.67;;;21.90;99.90;;;;;;4976730;28;20118;-79
2023/08/12 01:49:37;;;;;;;6.53;3.67;;;22.00;99.90;;;;;;4976518;28;20086;-77
2023/08/12 01:52:03;;;;;;;8.13;3.80;;;22.00;99.90;;;;;;4977143;28;20503;-79
2023/08/12 01:54:33;;;;;;;7.70;4.45;;;21.80;99.90;;;;;;4976474;28;20038;-79
2023/08/12 01:57:08;;;;;;;7.53;3.75;;;21.80;99.90;;;;;;4976919;28;20053;-79
2023/08/12 01:59:34;;;;;;;4.95;3.85;;;21.80;99.90;;;;;;4977294;28;20468;-79
2023/08/12 02:02:00;;;;;;;5.95;3.50;;;21.80;99.90;;;;;;4975665;28;20022;-80
2023/08/12 02:04:29;;;;;;;5.85;3.55;;;21.80;99.90;;;;;;4977171;28;20089;-79
2023/08/12 02:06:55;;;;;;;4.63;3.55;;;21.80;99.90;;;;;;4976634;28;20031;-79
2023/08/12 02:09:22;;;;;;;5.50;3.65;;;21.80;99.90;;;;;;4976492;28;20030;-79
2023/08/12 02:11:48;;;;;;;5.47;3.90;;;21.80;99.90;;;;;;4975675;28;20098;-79
2023/08/12 02:14:13;;;;;;;3.95;3.40;;;21.80;99.90;;;;;;4976787;28;20035;-79
2023/08/12 02:16:39;;;;;;;5.28;3.28;;;21.90;99.90;;;;;;4975875;28;20038;-78
2023/08/12 02:19:04;;;;;;;4.07;3.40;;;21.80;99.90;;;;;;4975321;28;20034;-78
2023/08/12 02:21:30;;;;;;;3.53;3.03;;;21.80;99.90;;;;;;4977180;28;20023;-80
2023/08/12 02:23:55;;;;;;;6.55;3.40;;;21.80;99.90;;;;;;4991997;28;20464;-79
2023/08/12 02:26:21;;;;;;;3.95;3.13;;;21.80;99.90;;;;;;4995206;28;20034;-79
2023/08/12 02:28:46;;;;;;;4.65;3.30;;;21.80;99.90;;;;;;4995424;28;20033;-79
2023/08/12 02:31:12;;;;;;;4.40;3.63;;;21.80;99.90;;;;;;4996544;28;20108;-79
2023/08/12 02:33:38;;;;;;;3.97;3.05;;;21.80;99.90;;;;;;4995914;28;20033;-79
2023/08/12 02:36:03;;;;;;;4.13;2.92;;;21.80;99.90;;;;;;4994069;28;20113;-79
2023/08/12 02:38:29;;;;;;;7.10;3.40;;;21.80;99.90;;;;;;4995768;28;20045;-79
2023/08/12 02:40:55;;;;;;;8.70;2.97;;;21.80;99.90;;;;;;4993852;28;20027;-79
2023/08/12 02:43:21;;;;;;;6.00;3.30;;;21.80;99.90;;;;;;4995050;28;20029;-79
2023/08/12 02:45:46;;;;;;;3.63;2.95;;;21.80;99.90;;;;;;4994483;28;20117;-79
2023/08/12 02:48:12;;;;;;;3.92;2.83;;;21.70;99.90;;;;;;4994901;28;20027;-80
2023/08/12 02:50:39;;;;;;;6.55;3.00;;;21.70;99.90;;;;;;4994952;28;20026;-79
2023/08/12 02:53:05;;;;;;;4.93;3.08;;;21.80;99.90;;;;;;4994153;28;20022;-79
2023/08/12 02:55:34;;;;;;;4.82;3.17;;;21.80;99.90;;;;;;4994943;28;20114;-79
2023/08/12 02:58:00;;;;;;;5.07;2.97;;;21.80;99.90;;;;;;4995360;28;20053;-79
2023/08/12 03:00:26;;;;;;;4.18;3.35;;;21.80;99.90;;;;;;4995148;28;20022;-80
2023/08/12 03:02:51;;;;;;;5.88;3.03;;;21.80;99.90;;;;;;4995419;28;20037;-80
2023/08/12 03:05:17;;;;;;;6.28;3.17;;;21.80;99.90;;;;;;4994823;28;20448;-80
2023/08/12 03:07:42;;;;;;;7.43;3.53;;;21.70;99.90;;;;;;4995845;28;20092;-78
2023/08/12 03:10:08;;;;;;;4.32;2.97;;;21.80;99.90;;;;;;4994445;28;20030;-80
2023/08/12 03:12:35;;;;;;;5.78;3.47;;;21.80;99.90;;;;;;4994608;28;20030;-79
2023/08/12 03:15:01;;;;;;;7.75;3.00;;;21.90;99.90;;;;;;4994043;28;20027;-79
2023/08/12 03:17:27;;;;;;;6.32;3.25;;;21.80;99.90;;;;;;4995071;28;20042;-79
2023/08/12 03:19:54;;;;;;;5.25;3.53;;;21.80;99.90;;;;;;4994372;28;20486;-79
2023/08/12 03:22:20;;;;;;;5.13;3.55;;;21.80;99.90;;;;;;4994419;28;20026;-80
2023/08/12 03:24:46;;;;;;;3.80;3.20;;;21.80;99.90;;;;;;4993576;28;20023;-76
2023/08/12 03:27:11;;;;;;;4.65;3.38;;;21.80;99.90;;;;;;4994306;28;20490;-79
2023/08/12 03:29:37;;;;;;;5.95;3.42;;;21.80;99.90;;;;;;4994273;28;20030;-79
2023/08/12 03:32:03;;;;;;;5.45;3.38;;;21.80;99.90;;;;;;4994451;28;20034;-79
2023/08/12 03:34:31;;;;;;;4.95;3.42;;;21.80;99.90;;;;;;4995002;28;20026;-79
2023/08/12 03:36:57;;;;;;;4.55;3.15;;;21.80;99.90;;;;;;4993165;28;20045;-79
2023/08/12 03:39:22;;;;;;;4.03;3.17;;;21.80;99.90;;;;;;4994933;28;20472;-79
2023/08/12 03:41:50;;;;;;;5.97;3.00;;;21.80;99.90;;;;;;4993170;28;20084;-78
2023/08/12 03:44:15;;;;;;;4.55;3.50;;;21.80;99.90;;;;;;4994703;28;20043;-79
2023/08/12 03:46:41;;;;;;;6.40;3.20;;;21.80;99.90;;;;;;4994632;28;20027;-80
2023/08/12 03:49:07;;;;;;;4.45;3.00;;;21.90;99.90;;;;;;4993113;28;20065;-79
2023/08/12 03:51:33;;;;;;;4.55;3.00;;;21.90;99.90;;;;;;4993480;28;20061;-78
2023/08/12 03:53:59;;;;;;;5.13;3.35;;;21.90;99.90;;;;;;4993902;28;20037;-78
2023/08/12 03:56:24;;;;;;;8.80;3.33;;;21.90;99.90;;;;;;4994332;28;20038;-79
2023/08/12 03:58:50;;;;;;;5.50;3.35;;;21.80;99.90;;;;;;4992686;28;20387;-78
2023/08/12 04:01:16;;;;;;;3.97;3.28;;;21.90;99.90;;;;;;4985695;28;20361;-79
2023/08/12 04:03:44;;;;;;;4.85;3.50;;;21.80;99.90;;;;;;4994512;28;20033;-79
2023/08/12 04:06:10;;;;;;;4.55;3.30;;;21.90;99.90;;;;;;4975206;28;20031;-79
2023/08/12 04:08:35;;;;;;;5.60;3.13;;;21.90;99.90;;;;;;4973971;28;20483;-79
2023/08/12 04:11:01;;;;;;;6.25;3.00;;;21.90;99.90;;;;;;4978799;28;20101;-78
2023/08/12 04:13:26;;;;;;;3.97;3.00;;;21.90;99.90;;;;;;4979974;28;20038;-79
2023/08/12 04:15:55;;;;;;;6.13;3.30;;;21.90;99.90;;;;;;4982703;28;20023;-78
2023/08/12 04:18:21;;;;;;;6.80;3.13;;;22.00;99.90;;;;;;4983904;28;20030;-79
2023/08/12 04:20:48;;;;;;;4.20;2.75;;;22.00;99.90;;;;;;4991490;28;20085;-76
2023/08/12 04:23:14;;;;;;;3.22;2.83;;;22.00;99.90;;;;;;4975020;28;20041;-78
2023/08/12 04:25:39;;;;;;;6.38;2.90;;;22.00;99.90;;;;;;4980158;28;20031;-78
2023/08/12 04:28:05;;;;;;;4.68;2.83;;;22.00;99.90;;;;;;4983421;28;20030;-79
2023/08/12 04:30:31;;;;;;;5.47;3.10;;;22.00;99.90;;;;;;4974067;28;20027;-80
2023/08/12 04:32:56;;;;;;;3.78;2.88;;;22.00;99.90;;;;;;4991508;28;20098;-81
2023/08/12 04:35:22;;;;;;;5.78;2.78;;;22.10;99.90;;;;;;4992887;28;20375;-79
2023/08/12 04:37:47;;;;;;;5.35;3.42;;;22.10;99.90;;;;;;4979299;28;20038;-78
2023/08/12 04:40:13;;;;;;;3.35;2.70;;;22.00;99.90;;;;;;4973766;28;20075;-78
2023/08/12 04:42:39;;;;;;;8.52;3.08;;;22.10;99.90;;;;;;4982433;28;20027;-79
2023/08/12 04:45:05;;;;;;;5.93;2.92;;;22.10;99.90;;;;;;4982923;28;20396;-77
2023/08/12 04:47:30;;;;;;;4.65;3.08;;;22.10;99.90;;;;;;4982866;28;20125;-77
2023/08/12 04:49:56;;;;;;;5.05;3.03;;;22.10;99.90;;;;;;4986501;28;20110;-77
2023/08/12 04:52:22;;;;;;;4.55;3.50;;;22.10;99.90;;;;;;4988418;28;20113;-78
2023/08/12 04:54:47;;;;;;;5.53;3.00;;;22.10;99.90;;;;;;4988480;28;20073;-77
2023/08/12 04:57:13;;;;;;;4.10;3.03;;;22.10;99.90;;;;;;4979544;28;20031;-77
2023/08/12 04:59:38;;;;;;;5.97;3.22;;;22.10;99.90;;;;;;4962291;28;20069;-79
2023/08/12 05:02:04;;;;;;;5.18;2.75;;;22.10;99.90;;;;;;4985292;28;20467;-79
2023/08/12 05:04:30;;;;;;;4.45;2.65;;;22.10;99.90;;;;;;4995677;28;20053;-80
2023/08/12 05:06:55;;;;;;;5.80;2.75;;;22.00;99.90;;;;;;4988898;28;20364;-79
2023/08/12 05:09:21;;;;;;;5.35;3.35;;;22.10;99.90;;;;;;4980021;28;20025;-80
2023/08/12 05:11:46;;;;;;;4.25;3.03;;;22.10;99.90;;;;;;4971586;28;20035;-80
2023/08/12 05:14:12;;;;;;;6.40;3.15;;;22.10;99.90;;;;;;4974009;28;20023;-84
2023/08/12 05:16:37;;;;;;;4.07;3.05;;;22.00;99.90;;;;;;4995255;28;20037;-80
2023/08/12 05:19:03;;;;;;;3.05;2.53;;;22.00;99.90;;;;;;4990490;28;20113;-82
2023/08/12 05:21:29;;;;;;;6.30;3.10;;;22.00;99.90;;;;;;4971360;28;20030;-83
2023/08/12 05:23:54;;;;;;;5.07;3.15;;;22.00;99.90;;;;;;4983453;28;20038;-84
2023/08/12 05:26:20;;;;;;;5.15;2.95;;;22.00;99.90;;;;;;4977295;28;20042;-82
2023/08/12 05:28:46;;;;;;;4.90;3.08;;;22.00;99.90;;;;;;4961178;28;20475;-80
2023/08/12 05:31:12;;;;;;;4.57;2.85;;;22.10;99.90;;;;;;4977348;28;20030;-79
2023/08/12 05:33:37;;;;;;;4.15;3.15;;;22.20;99.90;;;;;;4968086;28;20019;-78
2023/08/12 05:36:03;;;;;;;5.90;3.67;;;22.20;99.90;;;;;;4977556;28;20378;-80
2023/08/12 05:38:29;;;;;;;5.32;3.30;;;22.20;99.90;;;;;;4985768;28;20034;-81
2023/08/12 05:40:54;;;;;;;5.82;3.40;;;22.20;99.90;;;;;;4976879;28;20182;-79
2023/08/12 05:43:20;;;;;;;5.47;3.58;;;22.10;99.90;;;;;;4966299;28;20114;-85
2023/08/12 05:45:45;;;;;;;7.05;3.60;;;22.10;99.90;;;;;;4965103;28;20034;-82
2023/08/12 05:48:11;;;;;;;5.00;3.00;;;22.00;99.90;;;;;;4966112;28;20097;-82
2023/08/12 05:50:37;;;;;;;6.78;3.10;;;22.00;99.90;;;;;;4965391;28;20404;-84
2023/08/12 05:53:02;;;;;;;6.18;3.50;;;22.10;99.90;;;;;;4967573;28;20089;-81
2023/08/12 05:55:28;;;;;;;6.05;3.47;;;22.10;99.90;;;;;;4979794;28;20022;-82
2023/08/12 05:57:53;;;;;;;5.22;3.47;;;22.00;99.90;;;;;;4975724;28;20030;-79
2023/08/12 06:00:19;;;;;;;5.28;3.50;;;22.00;99.90;;;;;;4983999;28;20038;-85
2023/08/12 06:02:45;;;;;;;6.72;3.38;;;22.00;99.90;;;;;;4963544;28;20436;-80
2023/08/12 06:05:10;;;;;;;6.80;3.50;;;22.10;99.90;;;;;;4992909;28;20050;-80
2023/08/12 06:07:36;;;;;;;5.55;3.50;;;22.10;99.90;;;;;;4968393;28;20030;-82
2023/08/12 06:10:02;;;;;;;7.35;3.33;;;22.00;99.90;;;;;;4985029;28;20058;-83
2023/08/12 06:12:28;;;;;;;4.57;3.35;;;22.10;99.90;;;;;;4989212;28;20023;-82
2023/08/12 06:14:53;;;;;;;7.75;4.78;;;22.10;99.90;;;;;;4988549;28;20523;-80
2023/08/12 06:17:19;;;;;;;7.18;4.28;;;22.10;99.90;;;;;;4993293;28;20030;-81
2023/08/12 06:19:44;;;;;;;6.82;3.70;;;22.10;99.90;;;;;;4995183;28;20046;-82
2023/08/12 06:22:10;;;;;;;5.32;3.67;;;22.10;99.90;;;;;;4984247;28;20088;-81
2023/08/12 06:24:35;;;;;;;6.65;3.50;;;22.10;99.90;;;;;;4972704;28;20023;-81
2023/08/12 06:27:01;;;;;;;4.80;3.80;;;22.20;99.90;;;;;;4962415;28;20031;-80
2023/08/12 06:29:27;;;;;;;6.03;3.30;;;22.30;99.90;;;;;;4991848;28;20441;-79
2023/08/12 06:31:53;;;;;;;4.13;3.25;;;22.40;99.90;;;;;;4966212;28;20022;-79
2023/08/12 06:34:18;;;;;;;7.28;3.70;;;22.50;99.90;;;;;;4995873;28;20109;-80
2023/08/12 06:36:44;;;;;;;4.28;3.00;;;22.50;99.90;;;;;;4981056;28;20107;-80
2023/08/12 06:39:10;;;;;;;6.47;3.15;;;22.50;99.90;;;;;;4992113;28;20026;-80
2023/08/12 06:41:35;;;;;;;8.63;3.60;;;22.50;99.90;;;;;;4982274;28;20022;-80
2023/08/12 06:44:01;;;;;;;14.52;10.27;;;22.50;99.90;;;;;;4978299;28;20077;-80
2023/08/12 06:46:26;;;;;;;7.03;4.75;;;22.60;99.90;;;;;;4995529;28;20073;-79
2023/08/12 06:48:52;;;;;;;8.57;4.18;;;22.60;99.90;;;;;;4977831;28;20120;-80
2023/08/12 06:51:17;;;;;;;8.43;3.83;;;22.60;99.90;;;;;;4975481;28;20023;-79
2023/08/12 06:53:43;;;;;;;8.13;3.53;;;22.70;99.90;;;;;;4990436;28;20088;-81
2023/08/12 06:56:09;;;;;;;7.28;3.03;;;22.80;99.90;;;;;;4978041;28;20034;-81
2023/08/12 06:58:34;;;;;;;6.95;3.47;;;22.80;99.90;;;;;;4978159;28;20125;-80
2023/08/12 07:01:00;;;;;;;5.18;3.45;;;22.90;99.90;;;;;;4978091;28;20097;-80
2023/08/12 07:03:26;;;;;;;6.00;3.30;;;22.90;99.90;;;;;;4990672;28;20058;-80
2023/08/12 07:05:53;;;;;;;4.15;2.92;;;23.00;99.90;;;;;;4975829;28;20031;-78
2023/08/12 07:08:19;;;;;;;7.28;3.13;;;23.10;99.90;;;;;;4968720;28;20030;-81
2023/08/12 07:10:44;;;;;;;4.25;3.25;;;23.10;99.90;;;;;;4980640;28;20429;-80
2023/08/12 07:13:10;;;;;;;5.70;3.10;;;23.00;99.90;;;;;;4973898;28;20025;-80
2023/08/12 07:15:36;;;;;;;4.03;2.75;;;23.00;99.90;;;;;;4980374;28;20076;-79
2023/08/12 07:18:01;;;;;;;6.88;3.70;;;23.00;99.90;;;;;;4976148;28;20046;-79
2023/08/12 07:20:27;;;;;;;7.80;3.33;;;23.00;99.90;;;;;;4978299;28;20065;-81
2023/08/12 07:22:53;;;;;;;6.22;3.20;;;23.00;99.90;;;;;;4984249;28;20034;-80
2023/08/12 07:25:18;;;;;;;5.88;2.90;;;23.00;99.90;;;;;;4993581;28;20480;-82
2023/08/12 07:27:44;;;;;;;9.70;3.80;;;23.00;99.90;;;;;;4975432;28;20034;-82
2023/08/12 07:30:10;;;;;;;5.20;3.20;;;23.00;99.90;;;;;;4977447;28;20026;-81
2023/08/12 07:32:37;;;;;;;8.07;3.67;;;23.00;99.90;;;;;;4984098;28;20029;-82
2023/08/12 07:35:03;;;;;;;8.73;3.40;;;23.00;99.90;;;;;;4994407;28;20082;-81
2023/08/12 07:37:29;;;;;;;4.65;3.20;;;23.00;99.90;;;;;;4991828;28;20105;-82
2023/08/12 07:39:54;;;;;;;6.40;3.75;;;23.10;99.90;;;;;;4966433;28;20472;-78
2023/08/12 07:42:20;;;;;;;5.60;3.38;;;23.20;99.90;;;;;;4994453;28;20022;-81
2023/08/12 07:44:46;;;;;;;4.10;3.20;;;23.30;99.90;;;;;;4977690;28;20057;-81
2023/08/12 07:47:12;;;;;;;4.65;3.28;;;23.50;99.90;;;;;;4977118;28;20058;-81
2023/08/12 07:49:38;;;;;;;4.53;3.40;;;23.60;99.90;;;;;;4988518;28;20035;-81
2023/08/12 07:52:04;;;;;;;6.25;3.67;;;23.60;99.90;;;;;;4957993;28;20121;-82
2023/08/12 07:54:29;;;;;;;4.90;3.30;;;23.60;99.90;;;;;;4987953;28;20053;-80
2023/08/12 07:56:55;;;;;;;6.10;3.40;;;23.60;99.90;;;;;;4994746;28;20082;-84
2023/08/12 07:59:20;;;;;;;7.45;3.65;;;23.60;99.90;;;;;;4994581;28;20056;-92
2023/08/12 08:01:47;;;;;;;6.85;3.38;;;23.70;99.90;;;;;;4993905;28;20026;-89
2023/08/12 08:04:12;;;;;;;5.03;3.22;;;23.70;99.90;;;;;;4963218;28;20035;-86
2023/08/12 08:06:38;;;;;;;8.82;3.75;;;23.80;99.90;;;;;;4989337;28;20037;-81
2023/08/12 08:09:04;;;;;;;5.88;3.70;;;23.70;99.90;;;;;;4963694;28;20395;-81
2023/08/12 08:11:31;;;;;;;6.45;3.35;;;23.70;99.90;;;;;;4974948;28;20508;-81
2023/08/12 08:13:58;;;;;;;10.75;3.88;;;23.80;99.90;;;;;;4957626;28;20093;-81
2023/08/12 08:16:23;;;;;;;7.57;3.63;;;23.70;99.90;;;;;;4986288;28;20034;-85
2023/08/12 08:18:49;;;;;;;8.55;3.30;;;23.70;99.90;;;;;;4991878;28;20125;-84
2023/08/12 08:21:15;;;;;;;5.80;3.75;;;23.70;99.90;;;;;;4974194;28;20526;-85
2023/08/12 08:23:41;;;;;;;7.85;3.60;;;23.70;99.90;;;;;;4964057;28;20033;-85
2023/08/12 08:26:07;;;;;;;6.07;3.40;;;23.70;99.90;;;;;;4976396;28;20030;-83
2023/08/12 08:28:33;;;;;;;6.18;3.60;;;23.80;99.90;;;;;;4985561;28;20082;-83
2023/08/12 08:30:58;;;;;;;11.32;4.47;;;23.90;99.90;;;;;;4974391;28;20380;-81
2023/08/12 08:33:26;;;;;;;6.38;3.60;;;23.90;99.90;;;;;;4980480;28;20033;-86
2023/08/12 08:35:52;;;;;;;8.88;4.00;;;23.90;99.90;;;;;;4982732;28;20500;-83
2023/08/12 08:38:17;;;;;;;7.15;3.25;;;23.90;99.90;;;;;;4984952;28;20181;-84
2023/08/12 08:40:43;;;;;;;6.43;3.80;;;24.00;99.90;;;;;;4997303;28;20500;-84
2023/08/12 08:43:09;;;;;;;9.07;3.83;;;24.10;99.90;;;;;;4980756;28;20162;-82
2023/08/12 08:45:37;;;;;;;5.70;3.65;;;24.10;99.90;;;;;;4995421;28;20047;-82
2023/08/12 08:48:04;;;;;;;6.72;3.85;;;24.10;99.90;;;;;;4996588;28;20049;-83
2023/08/12 08:50:31;;;;;;;5.72;3.60;;;24.10;99.90;;;;;;4983156;28;20170;-82
2023/08/12 08:52:57;;;;;;;6.43;3.90;;;24.10;99.90;;;;;;4975959;28;20439;-79
2023/08/12 08:55:23;;;;;;;3.90;3.40;;;24.10;99.90;;;;;;4975793;28;20026;-81
2023/08/12 08:57:49;;;;;;;6.00;4.10;;;24.20;99.90;;;;;;4968363;28;20031;-82
2023/08/12 09:00:16;;;;;;;6.43;3.55;;;24.30;99.90;;;;;;4959880;28;20027;-83
2023/08/12 09:02:45;;;;;;;4.43;3.50;;;24.30;99.90;;;;;;4975271;28;20030;-82
2023/08/12 09:05:13;;;;;;;5.65;4.13;;;24.50;99.90;;;;;;4996547;28;20110;-82
2023/08/12 09:07:40;;;;;;;5.97;4.03;;;24.50;99.90;;;;;;4991472;28;20069;-81
2023/08/12 09:10:07;;;;;;;4.32;3.78;;;24.60;99.90;;;;;;4988609;28;20526;-81
2023/08/12 09:12:33;;;;;;;5.22;3.38;;;24.50;99.90;;;;;;4979978;28;20411;-82
2023/08/12 09:14:59;;;;;;;4.93;3.10;;;24.60;99.90;;;;;;4963200;28;20030;-79
2023/08/12 09:17:25;;;;;;;10.65;3.63;;;24.60;99.90;;;;;;4977331;28;20066;-82
2023/08/12 09:19:51;;;;;;;5.88;3.40;;;24.60;99.90;;;;;;4995821;28;20500;-82
2023/08/12 09:22:18;;;;;;;7.78;3.75;;;24.70;99.90;;;;;;4996806;28;20065;-81
2023/08/12 09:24:43;;;;;;;5.45;3.40;;;24.70;99.90;;;;;;4983254;28;20117;-82
2023/08/12 09:27:09;;;;;;;6.32;3.28;;;24.80;99.90;;;;;;4977279;28;20514;-83
2023/08/12 09:29:36;;;;;;;9.38;3.53;;;24.90;99.90;;;;;;4960617;28;20122;-84
2023/08/12 09:32:17;;;;;;;4.00;3.15;;;25.00;99.90;;;;;;4976649;28;20106;-81
2023/08/12 09:34:52;;;;;;;7.03;3.10;;;25.00;99.90;;;;;;4971610;28;20114;-83
2023/08/12 09:37:19;;;;;;;5.10;3.22;;;25.00;99.90;;;;;;4993519;28;20034;-82
2023/08/12 09:39:44;;;;;;;5.30;3.50;;;25.10;99.90;;;;;;4977300;28;20039;-83
2023/08/12 09:42:11;;;;;;;7.35;3.30;;;25.20;99.90;;;;;;4974809;28;20084;-83
2023/08/12 09:44:38;;;;;;;6.60;3.45;;;25.20;99.90;;;;;;4977602;28;20051;-84
2023/08/12 09:47:04;;;;;;;4.57;3.17;;;25.30;99.90;;;;;;4977219;28;20042;-84
2023/08/12 09:49:29;;;;;;;3.88;2.80;;;25.30;99.90;;;;;;4982264;28;20026;-83
2023/08/12 09:51:56;;;;;;;4.25;3.05;;;25.30;99.90;;;;;;4987858;28;20112;-84
2023/08/12 09:54:21;;;;;;;6.10;3.05;;;25.50;99.90;;;;;;4977215;28;20031;-82
2023/08/12 09:56:49;;;;;;;4.13;3.00;;;25.60;99.90;;;;;;4959845;28;20439;-82
2023/08/12 09:59:25;;;;;;;5.95;3.42;;;25.80;99.90;;;;;;4962431;28;20100;-85
2023/08/12 10:01:52;;;;;;;6.75;3.25;;;25.90;99.90;;;;;;4979576;28;20026;-84
2023/08/12 10:04:22;;;;;;;6.78;3.60;;;25.90;99.90;;;;;;4967469;28;20476;-83
2023/08/12 10:06:49;;;;;;;6.57;3.67;;;26.10;99.90;;;;;;4992762;28;20026;-83
2023/08/12 10:09:18;;;;;;;5.05;3.10;;;26.10;99.90;;;;;;4993064;28;20030;-84
2023/08/12 10:11:45;;;;;;;4.65;2.97;;;25.90;99.90;;;;;;4966756;28;20541;-84
2023/08/12 10:14:12;;;;;;;5.50;3.10;;;25.80;99.90;;;;;;4989467;28;20080;-83
2023/08/12 10:16:38;;;;;;;4.20;2.90;;;25.80;99.90;;;;;;4976004;28;20097;-83
2023/08/12 10:19:06;;;;;;;3.88;2.72;;;25.80;99.90;;;;;;4980516;28;20045;-84
2023/08/12 10:21:32;;;;;;;3.92;2.60;;;25.80;99.90;;;;;;4995963;28;20026;-87
2023/08/12 10:24:03;;;;;;;6.30;2.78;;;25.90;99.90;;;;;;4990844;28;20055;-87
2023/08/12 10:26:29;;;;;;;3.00;2.30;;;26.00;99.90;;;;;;4990167;28;20085;-89
2023/08/12 10:28:56;;;;;;;4.75;2.40;;;26.10;99.90;;;;;;4979242;28;20042;-88
2023/08/12 10:31:21;;;;;;;5.07;2.80;;;26.20;99.90;;;;;;4963346;28;20037;-88
2023/08/12 10:33:49;;;;;;;4.05;2.63;;;26.40;99.90;;;;;;4979249;28;20109;-88
2023/08/12 10:36:16;;;;;;;4.03;2.90;;;26.50;99.90;;;;;;4984132;28;20559;-89
2023/08/12 10:38:43;;;;;;;4.68;2.63;;;26.60;99.90;;;;;;4959660;28;20062;-87
2023/08/12 10:41:23;;;;;;;3.90;2.58;;;26.50;99.90;;;;;;4976849;28;20045;-86
2023/08/12 10:43:58;;;;;;;5.43;2.63;;;26.40;99.90;;;;;;4994963;28;20447;-86
2023/08/12 10:46:49;;;;;;;4.43;2.75;;;26.30;99.90;;;;;;4983293;28;20039;-88
2023/08/12 10:49:15;;;;;;;3.90;2.80;;;26.20;99.90;;;;;;4977714;28;20506;-87
2023/08/12 10:51:43;;;;;;;4.38;2.33;;;26.20;99.90;;;;;;4972035;28;20023;-87
2023/08/12 10:54:31;;;;;;;4.60;2.72;;;26.10;99.90;;;;;;4969196;28;20022;-88
2023/08/12 10:57:03;;;;;;;5.80;2.83;;;26.00;99.90;;;;;;4994255;28;20061;-83
2023/08/12 10:59:49;;;;;;;4.30;2.67;;;26.00;99.90;;;;;;4980260;28;20034;-87
2023/08/12 11:02:24;;;;;;;4.18;2.88;;;25.90;99.90;;;;;;4982400;28;20030;-88
2023/08/12 11:04:53;;;;;;;4.18;2.70;;;25.80;99.90;;;;;;4991600;28;20290;-84
2023/08/12 11:07:28;;;;;;;5.82;3.30;;;25.70;99.90;;;;;;4979628;28;20023;-87
2023/08/12 11:09:58;;;;;;;8.23;3.50;;;25.60;99.90;;;;;;4983474;28;20065;-86
2023/08/12 11:12:35;;;;;;;4.20;3.30;;;25.50;99.90;;;;;;4978544;28;20515;-87
2023/08/12 11:15:02;;;;;;;5.28;3.13;;;25.40;99.90;;;;;;4968256;28;20027;-87
2023/08/12 11:17:48;;;;;;;7.75;3.88;;;25.30;99.90;;;;;;4981608;28;20105;-87
2023/08/12 11:20:14;;;;;;;6.93;3.25;;;25.20;99.90;;;;;;4997291;28;20042;-87
2023/08/12 11:22:41;;;;;;;4.72;3.20;;;25.20;99.90;;;;;;4997654;28;20118;-88
2023/08/12 11:25:08;;;;;;;5.95;3.42;;;25.20;99.90;;;;;;4983131;28;20026;-86
2023/08/12 11:27:45;;;;;;;5.18;3.17;;;25.20;99.90;;;;;;4969425;28;20464;-87
2023/08/12 11:30:14;;;;;;;4.45;2.95;;;25.30;99.90;;;;;;4988084;28;20097;-87
2023/08/12 11:32:41;;;;;;;4.00;2.67;;;25.40;99.90;;;;;;4977546;28;20030;-86
2023/08/12 11:35:08;;;;;;;5.60;3.15;;;25.50;99.90;;;;;;4995602;28;20086;-86
2023/08/12 11:37:36;;;;;;;5.90;3.10;;;25.50;99.90;;;;;;4965151;28;20030;-87
2023/08/12 11:40:04;;;;;;;7.10;3.22;;;25.60;99.90;;;;;;4985605;28;20039;-87
2023/08/12 11:42:30;;;;;;;7.10;4.00;;;25.60;99.90;;;;;;4976134;28;20472;-88
2023/08/12 11:44:55;;;;;;;6.95;4.05;;;25.60;99.90;;;;;;4990742;28;20058;-87
2023/08/12 11:47:21;;;;;;;6.57;3.97;;;25.50;99.90;;;;;;4993242;28;20468;-87
2023/08/12 11:49:46;;;;;;;5.60;3.30;;;25.50;99.90;;;;;;4994037;28;20026;-87
2023/08/12 11:52:13;;;;;;;4.82;2.63;;;25.50;99.90;;;;;;4982377;28;20103;-88
2023/08/12 11:54:40;;;;;;;7.63;4.30;;;25.50;99.90;;;;;;4989557;28;20098;-88
2023/08/12 11:57:06;;;;;;;4.45;3.25;;;25.30;99.90;;;;;;4976257;28;20050;-86
2023/08/12 11:59:31;;;;;;;3.65;2.70;;;25.40;99.90;;;;;;4980488;28;20029;-88
2023/08/12 12:01:57;;;;;;;4.60;2.50;;;25.40;99.90;;;;;;4994008;28;20030;-85
2023/08/12 12:04:24;;;;;;;5.50;2.40;;;25.40;99.90;;;;;;4983705;28;20030;-87
2023/08/12 12:06:49;;;;;;;4.28;2.38;;;25.50;99.90;;;;;;4982398;28;20026;-86
2023/08/12 12:09:18;;;;;;;3.72;2.30;;;25.60;99.90;;;;;;4976837;28;20041;-88
2023/08/12 12:11:43;;;;;;;5.53;2.53;;;25.80;99.90;;;;;;4994056;28;20018;-86
2023/08/12 12:14:10;;;;;;;4.07;2.83;;;25.90;99.90;;;;;;4994485;28;20037;-87
2023/08/12 12:16:43;;;;;;;4.40;2.65;;;26.00;99.90;;;;;;4975615;28;20109;-90
2023/08/12 12:19:18;;;;;;;6.38;2.88;;;26.10;99.90;;;;;;4973967;28;20031;-88
2023/08/12 12:21:50;;;;;;;6.80;3.10;;;26.30;99.90;;;;;;4987331;28;20042;-88
2023/08/12 12:24:17;;;;;;;6.05;2.83;;;26.40;99.90;;;;;;4993392;28;20033;-86
2023/08/12 12:26:44;;;;;;;4.28;3.13;;;26.50;99.90;;;;;;4978771;28;20030;-88
2023/08/12 12:29:11;;;;;;;4.82;3.10;;;26.60;99.90;;;;;;4992958;28;20058;-88
2023/08/12 12:31:37;;;;;;;7.13;3.50;;;26.80;99.90;;;;;;4988361;28;20027;-89
2023/08/12 12:34:04;;;;;;;5.00;3.08;;;26.80;99.90;;;;;;4983924;28;20463;-88
2023/08/12 12:36:30;;;;;;;6.60;3.33;;;26.90;99.90;;;;;;4976226;28;20027;-89
2023/08/12 12:38:56;;;;;;;5.32;3.15;;;26.90;99.90;;;;;;4991717;28;20038;-89
2023/08/12 12:41:22;;;;;;;7.63;3.28;;;26.80;99.90;;;;;;4992535;28;20476;-88
2023/08/12 12:43:48;;;;;;;4.10;3.10;;;26.90;99.90;;;;;;4977026;28;20054;-88